Preveza, Greece

4:58 PM EET on December 04, 2016 (GMT +0200)
Aktion Air Base | | Change Station

Elev 13 ft 38.92 °N, 20.76 °E | Updated 8 minutes ago

Mostly Cloudy
Mostly Cloudy
57 °F
Feels Like 57 °F
N
0
Wind Variable Wind from North

Today
High -- | Low -- °F
--% Chance of Precip.
Yesterday
High -- | Low -- °F
Precip. -- in
Pressure 30.21 in
Visibility 6.2 miles
Clouds Scattered Clouds 3500 ft
Mostly Cloudy 8000 ft
Dew Point 52 °F
Humidity 82%
Rainfall 0.00 in
Snow Depth Not available.
7:39 AM 5:14 PM
Waxing Crescent, 23% visible
METAR LGPZ 041450Z 00000KT 9999 SCT035 BKN080 14/11 Q1023
Pressure 30.21 in
Visibility 6.2 miles
Clouds Scattered Clouds 3500 ft
Mostly Cloudy 8000 ft
Dew Point 52 °F
Humidity 82%
Rainfall 0.00 in
Snow Depth Not available.
7:39 AM 5:14 PM
Waxing Crescent, 23% visible
METAR LGPZ 041450Z 00000KT 9999 SCT035 BKN080 14/11 Q1023

10-Day Weather Forecast

×

Almanac

Astronomy

Dec. 04, 2016 Rise Set
Actual Time
Civil Twilight
Nautical Twilight
Astronomical Twilight
Moon
Length of Visible Light
Length of Day
Tomorrow will be .
, % of the Moon is Illuminated

Today's Extremes

Country Highs Country Lows

Community

WunderPhotos

Upload Photos

1,955,602 photos uploaded!

WunderBlog® & News

Nearby

Air Quality

  Air Quality AQ Index Pollutant
Not available.

Snow Depth

Station Depth Elevation

Earthquake Activity

City Distance Mag. Time & Date
Minimum magnitude displayed is 2.5.

Coastal Water Temperatures

Place Temperature

Stations

Nearby Weather Stations

Station Location Temp. Windchill Dew Point Humidity Wind Precip. Elev Updated Type